Time;durP1;ratioP1;P1;durP2;ratioP2;P2;SDS_P1;SDS_P2;PMS_P1;PMS_P2;Temp;Humidity;BMP_temperature;BMP_pressure;BME280_temperature;BME280_humidity;BME280_pressure;Samples;Min_cycle;Max_cycle;Signal;HPM_P1;HPM_P2
2023/08/16 00:02:16;;;;;;;13.90;5.90;;;;;;;21.30;100.00;100671.77;1418263;88;21487;-84
2023/08/16 00:04:42;;;;;;;7.40;6.08;;;;;;;21.22;100.00;100666.09;1395464;93;22032;-84
2023/08/16 00:07:08;;;;;;;6.97;5.95;;;;;;;21.19;100.00;100678.11;1423873;90;21434;-83
2023/08/16 00:09:35;;;;;;;7.65;5.90;;;;;;;21.16;100.00;100673.15;1442367;91;21471;-84
2023/08/16 00:12:01;;;;;;;12.95;5.65;;;;;;;21.11;100.00;100671.60;1423753;90;21376;-81
2023/08/16 00:14:27;;;;;;;12.82;6.05;;;;;;;21.09;100.00;100673.70;1450948;89;21461;-84
2023/08/16 00:16:54;;;;;;;6.72;6.03;;;;;;;21.05;100.00;100661.69;1445447;90;21458;-82
2023/08/16 00:19:20;;;;;;;6.35;5.28;;;;;;;20.99;100.00;100659.02;1447028;89;21384;-83
2023/08/16 00:21:46;;;;;;;14.07;6.72;;;;;;;20.95;100.00;100656.75;1453523;89;21420;-83
2023/08/16 00:24:12;;;;;;;17.60;6.92;;;;;;;20.93;100.00;100666.06;1450804;89;21442;-80
2023/08/16 00:26:39;;;;;;;11.28;5.83;;;;;;;20.90;100.00;100661.11;1445731;89;22565;-84
2023/08/16 00:29:05;;;;;;;7.20;5.53;;;;;;;20.89;100.00;100659.47;1454801;89;21405;-82
2023/08/16 00:31:31;;;;;;;8.23;6.10;;;;;;;20.88;100.00;100662.65;1430895;89;21385;-84
2023/08/16 00:33:57;;;;;;;13.05;6.83;;;;;;;20.87;100.00;100661.53;1381653;93;22337;-85
2023/08/16 00:36:24;;;;;;;7.03;6.20;;;;;;;20.85;100.00;100671.14;1391349;92;21509;-84
2023/08/16 00:38:50;;;;;;;10.65;6.45;;;;;;;20.86;100.00;100677.34;1412937;92;21368;-86
2023/08/16 00:41:17;;;;;;;10.20;5.97;;;;;;;20.84;100.00;100673.53;1402472;92;21542;-83
2023/08/16 00:43:43;;;;;;;7.90;5.47;;;;;;;20.84;100.00;100649.84;1406992;91;22210;-86
2023/08/16 00:46:14;;;;;;;6.10;5.05;;;;;;;20.81;100.00;100657.81;1425790;91;21375;-85
2023/08/16 00:48:43;;;;;;;9.58;5.60;;;;;;;20.81;100.00;100668.57;1411509;91;21493;-83
2023/08/16 00:51:10;;;;;;;11.00;5.85;;;;;;;20.84;100.00;100659.27;1419696;91;21346;-82
2023/08/16 00:53:40;;;;;;;7.42;5.40;;;;;;;20.87;100.00;100660.19;1431448;91;21485;-82
2023/08/16 00:56:06;;;;;;;13.53;7.00;;;;;;;20.86;100.00;100671.47;1414163;91;21352;-82
2023/08/16 00:58:33;;;;;;;13.93;6.22;;;;;;;20.81;100.00;100664.54;1433070;91;21523;-82
2023/08/16 01:00:59;;;;;;;14.87;6.08;;;;;;;20.78;100.00;100669.52;1409944;91;21390;-85
2023/08/16 01:03:25;;;;;;;10.95;6.17;;;;;;;20.76;100.00;100672.92;1415770;91;23229;-83
2023/08/16 01:05:53;;;;;;;7.12;5.95;;;;;;;20.74;100.00;100685.22;1414577;91;21597;-84
2023/08/16 01:08:20;;;;;;;12.73;5.33;;;;;;;20.73;100.00;100674.98;1428667;91;21316;-85
2023/08/16 01:11:07;;;;;;;11.50;5.47;;;;;;;20.75;100.00;100676.66;1422106;91;21367;-83
2023/08/16 01:14:00;;;;;;;8.13;5.97;;;;;;;20.77;100.00;100674.56;1406428;93;21419;-86
2023/08/16 01:16:28;;;;;;;6.67;5.92;;;;;;;20.76;100.00;100671.05;1399528;93;22403;-83
2023/08/16 01:18:56;;;;;;;11.38;5.53;;;;;;;20.72;100.00;100677.37;1409533;92;21316;-83
2023/08/16 01:21:24;;;;;;;8.80;6.12;;;;;;;20.72;100.00;100677.37;1394211;93;21418;-84
2023/08/16 01:24:22;;;;;;;16.05;6.03;;;;;;;20.70;100.00;100671.37;1430787;91;21412;-84
2023/08/16 01:26:49;;;;;;;8.55;6.15;;;;;;;20.72;100.00;100665.27;1442848;90;21967;-85
2023/08/16 01:29:18;;;;;;;10.63;6.40;;;;;;;20.73;100.00;100662.06;1453058;89;21539;-82
2023/08/16 01:31:44;;;;;;;13.22;6.65;;;;;;;20.71;100.00;100666.32;1451708;89;21370;-84
2023/08/16 01:34:11;;;;;;;7.00;5.83;;;;;;;20.69;100.00;100671.59;1488863;86;21436;-86
2023/08/16 01:36:37;;;;;;;19.95;8.53;;;;;;;20.66;100.00;100664.77;1479592;88;21450;-84
2023/08/16 01:39:03;;;;;;;6.42;5.58;;;;;;;20.62;100.00;100664.85;1453955;89;22426;-84
2023/08/16 01:41:46;;;;;;;9.05;5.92;;;;;;;20.59;100.00;100666.61;1441448;89;21362;-85
2023/08/16 01:44:13;;;;;;;7.10;5.30;;;;;;;20.58;100.00;100670.34;1447029;90;22210;-83
2023/08/16 01:46:41;;;;;;;6.17;5.47;;;;;;;20.55;100.00;100674.80;1436092;89;21546;-86
2023/08/16 01:49:09;;;;;;;8.95;6.22;;;;;;;20.55;100.00;100673.45;1439560;90;21480;-85
2023/08/16 01:51:36;;;;;;;10.38;6.33;;;;;;;20.52;100.00;100680.56;1434368;90;21414;-83
2023/08/16 01:54:02;;;;;;;8.55;6.78;;;;;;;20.51;100.00;100679.73;1446217;89;21364;-86
2023/08/16 01:56:29;;;;;;;10.35;5.92;;;;;;;20.48;100.00;100681.98;1464782;88;21398;-86
2023/08/16 01:58:55;;;;;;;7.85;7.00;;;;;;;20.46;100.00;100681.39;1477344;88;21516;-86
2023/08/16 02:01:21;;;;;;;8.98;6.40;;;;;;;20.44;100.00;100676.20;1454414;88;21434;-87
2023/08/16 02:03:49;;;;;;;11.97;5.83;;;;;;;20.42;100.00;100669.38;1446448;88;21347;-85
2023/08/16 02:06:16;;;;;;;7.33;6.10;;;;;;;20.40;100.00;100668.25;1445534;89;21406;-85
2023/08/16 02:08:42;;;;;;;14.20;6.08;;;;;;;20.40;100.00;100671.44;1449558;88;21552;-86
2023/08/16 02:11:09;;;;;;;10.08;5.92;;;;;;;20.36;100.00;100669.69;1469535;88;22433;-84
2023/08/16 02:13:35;;;;;;;13.50;6.25;;;;;;;20.34;100.00;100670.92;1472039;88;21339;-86
2023/08/16 02:16:03;;;;;;;9.15;6.25;;;;;;;20.34;100.00;100672.27;1473851;88;21405;-85
2023/08/16 02:18:30;;;;;;;9.35;6.75;;;;;;;20.33;100.00;100671.44;1468106;88;21359;-84
2023/08/16 02:20:57;;;;;;;7.00;6.30;;;;;;;20.25;100.00;100664.42;1451148;89;22174;-86
2023/08/16 02:23:24;;;;;;;7.87;6.12;;;;;;;20.18;100.00;100662.75;1447538;90;21325;-85
2023/08/16 02:25:50;;;;;;;11.73;6.12;;;;;;;20.12;100.00;100658.20;1452673;90;21450;-86
2023/08/16 02:28:16;;;;;;;10.15;6.78;;;;;;;20.06;100.00;100652.61;1446013;89;22405;-84
2023/08/16 02:30:43;;;;;;;13.55;7.28;;;;;;;19.99;100.00;100645.56;1457279;88;21346;-83
2023/08/16 02:33:09;;;;;;;10.03;6.12;;;;;;;19.90;100.00;100645.45;1457948;88;21605;-84
2023/08/16 02:35:35;;;;;;;9.45;6.75;;;;;;;19.83;100.00;100638.20;1465662;88;21381;-84
2023/08/16 02:38:02;;;;;;;6.97;5.12;;;;;;;19.76;100.00;100636.00;1446356;89;22195;-85
2023/08/16 02:40:28;;;;;;;12.90;6.58;;;;;;;19.68;100.00;100630.84;1455295;89;21588;-85
2023/08/16 02:42:54;;;;;;;7.75;5.95;;;;;;;19.61;100.00;100628.61;1460272;89;22299;-85
2023/08/16 02:45:21;;;;;;;11.10;6.00;;;;;;;19.58;100.00;100628.49;1451288;89;21338;-86
2023/08/16 02:47:48;;;;;;;8.83;6.17;;;;;;;19.57;100.00;100627.37;1441271;89;21505;-84
2023/08/16 02:50:14;;;;;;;11.12;6.87;;;;;;;19.57;100.00;100627.37;1409551;92;21423;-85
2023/08/16 02:52:40;;;;;;;9.58;6.30;;;;;;;19.55;100.00;100630.76;1438747;91;21553;-86
2023/08/16 02:55:08;;;;;;;10.87;7.30;;;;;;;19.51;100.00;100632.20;1438816;90;21493;-85
2023/08/16 02:57:34;;;;;;;9.20;7.08;;;;;;;19.46;100.00;100627.95;1433757;90;22612;-85
2023/08/16 03:00:00;;;;;;;9.45;6.92;;;;;;;19.40;100.00;100624.20;1429233;90;21375;-83
2023/08/16 03:02:27;;;;;;;11.22;7.20;;;;;;;19.35;100.00;100629.34;1433627;91;22320;-83
2023/08/16 03:04:54;;;;;;;8.40;6.25;;;;;;;19.32;100.00;100627.88;1430708;89;21391;-83
2023/08/16 03:07:20;;;;;;;8.83;5.62;;;;;;;19.30;100.00;100635.81;1423174;91;21390;-83
2023/08/16 03:09:47;;;;;;;8.58;6.00;;;;;;;19.28;100.00;100632.00;1416885;90;21540;-84
2023/08/16 03:12:13;;;;;;;8.20;5.95;;;;;;;19.28;100.00;100640.05;1414916;91;21420;-82
2023/08/16 03:14:39;;;;;;;7.53;5.92;;;;;;;19.28;100.00;100645.94;1444813;90;22293;-85
2023/08/16 03:17:05;;;;;;;8.25;6.25;;;;;;;19.29;100.00;100651.09;1395087;91;21449;-83
2023/08/16 03:19:32;;;;;;;6.95;6.22;;;;;;;19.27;100.00;100649.63;1432556;89;21473;-84
2023/08/16 03:21:58;;;;;;;11.53;6.40;;;;;;;19.22;100.00;100648.91;1433133;89;22265;-85
2023/08/16 03:24:26;;;;;;;16.82;6.75;;;;;;;19.20;100.00;100650.13;1421021;91;21401;-81
2023/08/16 03:26:52;;;;;;;6.62;6.03;;;;;;;19.13;100.00;100640.69;1438148;91;21411;-85
2023/08/16 03:29:19;;;;;;;12.00;5.92;;;;;;;19.07;100.00;100641.48;1429189;91;21344;-87
2023/08/16 03:31:46;;;;;;;11.05;5.97;;;;;;;19.00;100.00;100633.41;1428502;91;22675;-85
2023/08/16 03:34:13;;;;;;;9.98;6.37;;;;;;;18.91;100.00;100630.05;1455924;88;21388;-90
2023/08/16 03:36:40;;;;;;;16.60;7.00;;;;;;;18.88;100.00;100626.43;1464467;89;21579;-86
2023/08/16 03:39:06;;;;;;;9.70;6.47;;;;;;;18.88;100.00;100631.79;1443798;89;21442;-88
2023/08/16 03:41:33;;;;;;;9.43;6.22;;;;;;;18.90;100.00;100627.07;1463549;89;21435;-88
2023/08/16 03:44:01;;;;;;;9.35;6.42;;;;;;;18.90;100.00;100624.39;1467775;89;22352;-82
2023/08/16 03:46:27;;;;;;;8.45;6.62;;;;;;;18.92;100.00;100623.66;1462310;89;21333;-86
2023/08/16 03:48:53;;;;;;;8.23;6.55;;;;;;;18.98;100.00;100621.22;1459804;89;21487;-84
2023/08/16 03:51:19;;;;;;;6.70;5.95;;;;;;;18.96;100.00;100617.89;1462554;89;22307;-82
2023/08/16 03:53:45;;;;;;;7.50;6.78;;;;;;;18.96;100.00;100613.87;1460018;89;21376;-82
2023/08/16 03:56:11;;;;;;;11.75;8.38;;;;;;;18.98;100.00;100618.53;1460689;88;21354;-83
2023/08/16 03:58:38;;;;;;;13.38;7.50;;;;;;;18.97;100.00;100617.71;1457337;89;22191;-84
2023/08/16 04:01:04;;;;;;;11.97;6.60;;;;;;;19.00;100.00;100623.20;1445591;89;21449;-83
2023/08/16 04:03:30;;;;;;;11.45;6.67;;;;;;;19.04;100.00;100629.28;1461423;89;21347;-85
2023/08/16 04:05:56;;;;;;;9.83;7.33;;;;;;;19.08;100.00;100629.74;1476772;87;21418;-81
2023/08/16 04:08:23;;;;;;;14.53;7.55;;;;;;;19.07;100.00;100637.45;1488343;87;21514;-81
2023/08/16 04:10:49;;;;;;;19.35;6.78;;;;;;;19.11;100.00;100637.39;1482956;87;21419;-82
2023/08/16 04:13:16;;;;;;;11.03;6.42;;;;;;;19.12;100.00;100639.04;1493738;86;21418;-82
2023/08/16 04:15:42;;;;;;;20.75;6.50;;;;;;;19.13;100.00;100640.69;1485707;87;22381;-80
2023/08/16 04:18:09;;;;;;;14.25;8.20;;;;;;;19.14;100.00;100647.72;1487455;87;21315;-83
2023/08/16 04:20:35;;;;;;;8.70;7.03;;;;;;;19.19;100.00;100653.33;1482719;87;21373;-82
2023/08/16 04:23:02;;;;;;;13.50;7.33;;;;;;;19.22;100.00;100654.27;1485975;86;22505;-83
2023/08/16 04:25:28;;;;;;;9.05;7.45;;;;;;;19.26;100.00;100652.84;1486050;87;21292;-81
2023/08/16 04:27:54;;;;;;;9.35;7.22;;;;;;;19.29;100.00;100657.80;1470136;87;21322;-82
2023/08/16 04:30:20;;;;;;;8.00;6.60;;;;;;;19.36;100.00;100661.36;1487314;86;21426;-80
2023/08/16 04:32:46;;;;;;;11.00;6.33;;;;;;;19.44;100.00;100664.89;1492504;86;21396;-81
2023/08/16 04:35:12;;;;;;;19.50;7.22;;;;;;;19.43;100.00;100656.53;1493580;87;21300;-81
2023/08/16 04:37:39;;;;;;;8.55;6.78;;;;;;;19.48;100.00;100660.77;1470375;86;21456;-82
2023/08/16 04:40:06;;;;;;;13.78;7.37;;;;;;;19.54;100.00;100661.33;1480989;87;22282;-80
2023/08/16 04:42:34;;;;;;;11.95;7.72;;;;;;;19.61;100.00;100662.16;1489025;87;21345;-82
2023/08/16 04:45:03;;;;;;;11.12;8.05;;;;;;;19.64;100.00;100658.25;1474398;88;22209;-81
2023/08/16 04:47:30;;;;;;;11.85;8.20;;;;;;;19.72;100.00;100673.70;1472399;87;21434;-81
2023/08/16 04:49:56;;;;;;;9.18;7.53;;;;;;;19.79;100.00;100673.71;1474569;88;21382;-81
2023/08/16 04:52:23;;;;;;;16.27;6.70;;;;;;;19.84;100.00;100667.23;1479909;88;21463;-80
2023/08/16 04:54:49;;;;;;;9.63;6.53;;;;;;;19.90;100.00;100670.96;1477857;87;21367;-80
2023/08/16 04:57:15;;;;;;;20.05;6.37;;;;;;;19.97;100.00;100681.22;1485750;87;21388;-81
2023/08/16 04:59:41;;;;;;;11.28;6.97;;;;;;;20.03;100.00;100675.86;1478559;87;21448;-82
2023/08/16 05:02:08;;;;;;;10.75;6.97;;;;;;;20.11;100.00;100680.22;1460873;88;21439;-80
2023/08/16 05:04:34;;;;;;;15.63;7.60;;;;;;;20.20;100.00;100680.85;1461050;88;21515;-81
2023/08/16 05:07:00;;;;;;;10.20;6.12;;;;;;;20.27;100.00;100679.80;1480254;88;21456;-81
2023/08/16 05:09:27;;;;;;;11.18;6.45;;;;;;;20.41;100.00;100679.83;1487592;88;21448;-81
2023/08/16 05:11:52;;;;;;;10.45;7.25;;;;;;;20.54;100.00;100681.19;1468728;88;21471;-81
2023/08/16 05:14:19;;;;;;;10.48;6.67;;;;;;;20.64;100.00;100684.30;1479709;88;21441;-79
2023/08/16 05:16:45;;;;;;;18.80;7.33;;;;;;;20.70;100.00;100678.09;1472592;87;22158;-79
2023/08/16 05:19:11;;;;;;;8.03;6.97;;;;;;;20.75;100.00;100683.38;1458778;88;21360;-79
2023/08/16 05:21:37;;;;;;;7.40;5.53;;;;;;;20.89;100.00;100680.98;1474086;88;21523;-81
2023/08/16 05:24:04;;;;;;;11.95;6.97;;;;;;;20.89;100.00;100680.98;1477077;88;21559;-81
2023/08/16 05:26:31;;;;;;;11.53;6.65;;;;;;;20.93;100.00;100681.69;1484625;88;21352;-81
2023/08/16 05:28:58;;;;;;;7.72;5.95;;;;;;;21.07;100.00;100679.80;1483740;87;22299;-80
2023/08/16 05:31:25;;;;;;;12.07;5.90;;;;;;;21.07;100.00;100679.80;1485983;88;21529;-80
2023/08/16 05:33:52;;;;;;;7.78;6.05;;;;;;;21.17;100.00;100678.01;1487796;88;21382;-79
2023/08/16 05:36:18;;;;;;;6.92;4.95;;;;;;;21.35;100.00;100676.02;1479846;87;21493;-81
2023/08/16 05:38:44;;;;;;;9.73;6.37;;;;;;;21.46;100.00;100678.56;1476396;88;21434;-80
2023/08/16 05:41:10;;;;;;;12.20;6.47;;;;;;;21.61;100.00;100688.58;1476719;88;22276;-79
2023/08/16 05:43:37;;;;;;;15.08;6.70;;;;;;;21.73;100.00;100683.34;1481600;88;21466;-81
2023/08/16 05:46:03;;;;;;;6.40;5.72;;;;;;;21.84;100.00;100682.66;1478447;88;21367;-83
2023/08/16 05:48:29;;;;;;;8.83;5.65;;;;;;;21.90;100.00;100685.84;1485158;88;21579;-82
2023/08/16 05:50:55;;;;;;;9.18;5.70;;;;;;;22.04;100.00;100681.20;1477034;88;21532;-83
2023/08/16 05:53:24;;;;;;;11.60;6.30;;;;;;;22.23;100.00;100688.86;1463843;88;21412;-82
2023/08/16 05:55:50;;;;;;;10.23;5.40;;;;;;;22.39;100.00;100685.64;1479397;88;21397;-81
2023/08/16 05:58:16;;;;;;;12.23;6.03;;;;;;;22.58;100.00;100687.05;1467660;88;22358;-82
2023/08/16 06:00:45;;;;;;;13.83;5.83;;;;;;;22.68;100.00;100684.69;1481332;87;21382;-81
2023/08/16 06:03:11;;;;;;;12.60;6.12;;;;;;;22.73;100.00;100684.85;1480433;88;22224;-79
2023/08/16 06:05:37;;;;;;;10.70;6.33;;;;;;;22.85;100.00;100691.17;1482643;88;22558;-81
2023/08/16 06:08:04;;;;;;;15.55;5.90;;;;;;;22.92;100.00;100694.61;1478431;88;22218;-81
2023/08/16 06:10:31;;;;;;;10.25;5.95;;;;;;;23.02;100.00;100693.30;1477044;87;21353;-80
2023/08/16 06:12:57;;;;;;;8.03;5.58;;;;;;;23.10;100.00;100691.66;1478078;87;22321;-79
2023/08/16 06:15:23;;;;;;;9.10;6.65;;;;;;;23.18;100.00;100691.37;1482318;87;22096;-89
2023/08/16 06:17:49;;;;;;;8.23;5.78;;;;;;;23.30;100.00;100689.57;1489163;87;21344;-85
2023/08/16 06:20:19;;;;;;;7.92;6.72;;;;;;;23.34;100.00;100688.09;1462478;88;21419;-91
2023/08/16 06:22:45;;;;;;;11.03;7.37;;;;;;;23.27;100.00;100691.37;1480998;88;21359;-88
2023/08/16 06:25:11;;;;;;;13.90;6.85;;;;;;;23.32;100.00;100704.20;1478977;87;21507;-88
2023/08/16 06:27:38;;;;;;;16.77;6.37;;;;;;;23.35;100.00;100703.23;1462406;88;22298;-87
2023/08/16 06:30:05;;;;;;;16.10;7.40;;;;;;;23.40;100.00;100708.78;1460874;88;21396;-89
2023/08/16 06:32:31;;;;;;;9.73;7.12;;;;;;;23.52;100.00;100702.63;1478163;88;21308;-85
2023/08/16 06:34:58;;;;;;;11.65;7.83;;;;;;;23.50;100.00;100698.79;1479837;88;21544;-84
2023/08/16 06:37:24;;;;;;;18.77;7.50;;;;;;;23.46;100.00;100685.45;1477645;87;21565;-89
2023/08/16 06:39:50;;;;;;;10.38;7.15;;;;;;;23.52;100.00;100692.64;1460759;88;21419;-90
2023/08/16 06:42:16;;;;;;;8.38;6.08;;;;;;;23.60;100.00;100696.39;1476491;88;21544;-86
2023/08/16 06:44:42;;;;;;;15.80;6.60;;;;;;;23.67;100.00;100690.90;1477000;87;21367;-88
2023/08/16 06:47:09;;;;;;;13.53;6.58;;;;;;;23.71;100.00;100685.39;1482052;88;22195;-93
2023/08/16 06:49:35;;;;;;;10.05;6.87;;;;;;;23.81;100.00;100692.40;1459983;88;22504;-88
2023/08/16 06:52:01;;;;;;;12.45;7.35;;;;;;;23.86;100.00;100689.84;1480500;88;21389;-94
2023/08/16 06:54:28;;;;;;;13.28;7.05;;;;;;;23.90;100.00;100692.09;1483550;87;21384;-92
2023/08/16 06:56:57;;;;;;;15.38;6.47;;;;;;;23.97;100.00;100695.54;1491711;88;22446;-86
2023/08/16 06:59:22;;;;;;;13.35;8.05;;;;;;;23.99;100.00;100682.59;1456439;88;22033;-91
2023/08/16 07:01:49;;;;;;;14.90;9.00;;;;;;;24.05;100.00;100683.02;1487005;87;22872;-94
2023/08/16 07:04:15;;;;;;;18.48;6.90;;;;;;;24.06;100.00;100680.64;1467890;88;21374;-92
2023/08/16 07:06:41;;;;;;;17.12;8.03;;;;;;;24.08;100.00;100673.09;1478406;87;21360;-95
2023/08/16 07:09:08;;;;;;;9.08;6.72;;;;;;;24.12;100.00;100682.95;1482443;87;21500;-91
2023/08/16 07:11:36;;;;;;;17.90;6.08;;;;;;;24.26;100.00;100688.45;1476052;88;21654;-94
2023/08/16 07:14:03;;;;;;;12.60;6.55;;;;;;;24.35;100.00;100683.53;1477982;88;21502;-90
2023/08/16 07:16:31;;;;;;;12.45;6.33;;;;;;;24.49;100.00;100691.76;1479503;87;21521;-94
2023/08/16 07:18:57;;;;;;;11.48;7.05;;;;;;;24.74;100.00;100689.67;1477903;87;21308;-93
2023/08/16 07:21:23;;;;;;;15.05;8.13;;;;;;;24.98;100.00;100689.66;1461520;88;22052;-92
2023/08/16 07:23:50;;;;;;;14.33;6.83;;;;;;;25.07;100.00;100695.00;1442415;88;21462;-88
2023/08/16 07:26:25;;;;;;;13.93;7.33;;;;;;;25.19;100.00;100702.61;1428628;87;21389;-85
2023/08/16 07:28:51;;;;;;;11.57;7.22;;;;;;;25.25;100.00;100698.66;1403712;88;21235;-86
2023/08/16 07:31:17;;;;;;;12.58;7.37;;;;;;;25.40;100.00;100693.55;1404836;87;21286;-91
2023/08/16 07:33:44;;;;;;;18.67;7.33;;;;;;;25.50;100.00;100688.36;1403901;88;22185;-92
2023/08/16 07:36:11;;;;;;;15.53;7.25;;;;;;;25.54;100.00;100689.51;1443858;87;21359;-92
2023/08/16 07:38:37;;;;;;;18.82;8.13;;;;;;;25.66;100.00;100691.67;1480281;88;21397;-87
2023/08/16 07:41:04;;;;;;;15.75;7.55;;;;;;;25.77;100.00;100686.44;1480052;87;22269;-91
2023/08/16 07:43:30;;;;;;;16.10;8.00;;;;;;;25.77;100.00;100689.14;1482641;87;22470;-89
2023/08/16 07:45:56;;;;;;;11.28;7.33;;;;;;;25.70;100.00;100688.48;1459332;88;21374;-89
2023/08/16 07:48:23;;;;;;;13.55;8.55;;;;;;;25.60;100.00;100687.19;1477963;88;21530;-93
2023/08/16 07:50:50;;;;;;;16.65;7.28;;;;;;;25.56;100.00;100688.75;1462975;88;21636;-90
2023/08/16 07:53:17;;;;;;;10.38;7.67;;;;;;;25.47;100.00;100685.31;1403374;87;21264;-89
2023/08/16 07:55:43;;;;;;;13.10;9.23;;;;;;;25.48;100.00;100678.81;1403268;88;22301;-88
2023/08/16 07:58:10;;;;;;;22.70;8.13;;;;;;;25.52;100.00;100674.55;1447250;88;21331;-92
2023/08/16 08:00:36;;;;;;;11.35;8.25;;;;;;;25.55;100.00;100672.20;1481402;87;21610;-90
2023/08/16 08:03:03;;;;;;;13.40;8.13;;;;;;;25.55;100.00;100664.08;1478064;87;21381;-85
2023/08/16 08:05:31;;;;;;;13.60;8.50;;;;;;;25.59;100.00;100658.45;1462303;88;21522;-90
2023/08/16 08:07:57;;;;;;;14.68;8.65;;;;;;;25.71;100.00;100652.16;1481785;88;21359;-86
2023/08/16 08:10:24;;;;;;;15.65;8.45;;;;;;;25.82;100.00;100653.50;1477752;87;21412;-86
2023/08/16 08:12:50;;;;;;;18.48;8.45;;;;;;;25.96;100.00;100662.16;1479924;87;21530;-93
2023/08/16 08:15:17;;;;;;;15.30;7.28;;;;;;;26.14;100.00;100672.50;1477301;87;21412;-91
2023/08/16 08:17:46;;;;;;;12.73;7.80;;;;;;;26.28;100.00;100673.28;1481999;87;21381;-93
2023/08/16 08:20:14;;;;;;;17.60;8.05;;;;;;;26.42;100.00;100684.64;1464675;88;21344;-89
2023/08/16 08:22:40;;;;;;;19.00;7.15;;;;;;;26.50;100.00;100684.27;1475767;88;21544;-94
2023/08/16 08:25:08;;;;;;;13.80;7.55;;;;;;;26.65;100.00;100681.52;1478197;88;21389;-94
2023/08/16 08:27:34;;;;;;;11.38;6.97;;;;;;;26.81;100.00;100683.91;1476224;88;21494;-92
2023/08/16 08:30:03;;;;;;;14.05;8.15;;;;;;;26.98;100.00;100692.84;1477696;88;21515;-93
2023/08/16 08:32:29;;;;;;;14.40;8.08;;;;;;;27.11;100.00;100693.04;1477085;87;21427;-92
2023/08/16 08:34:55;;;;;;;14.05;8.00;;;;;;;27.21;100.00;100704.05;1475411;88;21352;-94
2023/08/16 08:37:28;;;;;;;16.37;7.83;;;;;;;27.21;100.00;100695.36;1456152;88;21352;-91
2023/08/16 08:40:05;;;;;;;;;;;;;;;;;;;;;
2023/08/16 08:46:44;;;;;;;14.93;7.92;;;;;;;27.00;100.00;100688.81;1406839;92;22391;-90
2023/08/16 08:49:11;;;;;;;10.70;7.53;;;;;;;26.92;100.00;100698.73;1408320;93;21559;-91
2023/08/16 08:51:38;;;;;;;10.08;6.70;;;;;;;26.89;100.00;100697.06;1405847;93;21453;-89
2023/08/16 08:54:05;;;;;;;21.20;7.85;;;;;;;26.89;100.00;100689.73;1403988;93;21452;-92
2023/08/16 08:56:31;;;;;;;17.57;7.67;;;;;;;26.91;100.00;100694.39;1406832;93;21378;-90
2023/08/16 08:59:01;;;;;;;13.22;7.53;;;;;;;26.88;100.00;100690.81;1391407;93;21556;-94
2023/08/16 09:01:31;;;;;;;14.98;7.58;;;;;;;26.82;100.00;100685.56;1384528;93;22148;-88
2023/08/16 09:04:03;;;;;;;;;;;;;;;26.91;100.00;100686.78;1404829;93;21437;-94
2023/08/16 09:06:29;;;;;;;13.32;7.30;;;;;;;27.09;100.00;100696.53;1406026;93;20423;-92
2023/08/16 09:08:58;;;;;;;12.47;7.08;;;;;;;27.26;100.00;100692.45;1406692;92;22295;-96
2023/08/16 09:11:25;;;;;;;19.12;7.47;;;;;;;27.36;100.00;100700.20;1384481;94;21684;-89
2023/08/16 09:14:08;;;;;;;16.17;7.67;;;;;;;27.43;100.00;100710.88;1382953;94;22104;-89
2023/08/16 09:16:35;;;;;;;11.70;7.60;;;;;;;27.45;100.00;100704.11;1381349;94;21460;-94
2023/08/16 09:19:02;;;;;;;12.70;7.10;;;;;;;27.48;100.00;100722.33;1390741;89;21749;-90
2023/08/16 09:21:30;;;;;;;17.55;7.58;;;;;;;27.52;100.00;100718.86;1454745;89;22634;-87
2023/08/16 09:23:59;;;;;;;14.25;8.50;;;;;;;27.56;100.00;100723.25;1454222;89;21308;-86
2023/08/16 09:26:28;;;;;;;15.28;7.55;;;;;;;27.59;100.00;100733.10;1453298;89;21604;-89
2023/08/16 09:29:02;;;;;;;13.22;7.95;;;;;;;27.65;100.00;100735.34;1454950;89;21397;-91
2023/08/16 09:31:31;;;;;;;15.50;8.80;;;;;;;27.62;100.00;100727.67;1538445;89;21199;-89
2023/08/16 09:34:01;;;;;;;14.80;6.33;;;;;;;27.67;100.00;100718.22;1384867;89;21431;-89
2023/08/16 09:36:31;;;;;;;13.72;5.55;;;;;;;27.70;100.00;100713.62;1458171;89;21383;-94
2023/08/16 09:39:04;;;;;;;7.80;5.72;;;;;;;27.69;100.00;100714.72;1454151;89;21611;-91
2023/08/16 09:41:31;;;;;;;24.45;10.43;;;;;;;27.72;100.00;100731.88;1457073;88;21456;-91
2023/08/16 09:44:06;;;;;;;15.95;7.87;;;;;;;27.71;100.00;100736.20;1456154;89;21553;-90
2023/08/16 09:46:34;;;;;;;13.05;7.55;;;;;;;27.67;100.00;100736.70;1537717;89;21605;-94
2023/08/16 09:49:08;;;;;;;11.38;6.87;;;;;;;27.62;100.00;100739.90;1366982;90;21279;-91
2023/08/16 10:02:37;;;;;;;14.10;5.87;;;;;;;27.47;100.00;100758.20;1397136;89;21338;-93
2023/08/16 10:05:04;;;;;;;14.00;6.45;;;;;;;27.40;100.00;100743.45;1408072;89;22358;-93
2023/08/16 10:07:31;;;;;;;12.95;6.67;;;;;;;27.38;100.00;100736.08;1456158;89;21604;-90
2023/08/16 10:09:58;;;;;;;9.90;6.72;;;;;;;27.36;100.00;100735.53;1443164;89;21295;-92
2023/08/16 10:12:26;;;;;;;11.12;7.03;;;;;;;27.34;100.00;100734.95;1440761;89;21390;-91
2023/08/16 10:14:52;;;;;;;12.63;6.28;;;;;;;27.35;100.00;100733.05;1380632;89;21416;-90
2023/08/16 10:17:21;;;;;;;16.50;7.28;;;;;;;27.35;100.00;100739.84;1381608;89;21273;-94
2023/08/16 10:19:51;;;;;;;10.20;6.87;;;;;;;27.35;100.00;100746.63;1438320;89;22286;-95
2023/08/16 10:22:35;;;;;;;8.35;5.62;;;;;;;27.36;100.00;100753.19;1364477;91;21486;-93
2023/08/16 10:25:12;;;;;;;15.72;6.67;;;;;;;27.38;100.00;100756.45;1399013;89;22270;-91
2023/08/16 10:27:38;;;;;;;10.15;5.97;;;;;;;27.48;100.00;100765.81;1377505;94;22188;-90
2023/08/16 10:30:09;;;;;;;14.65;5.45;;;;;;;27.59;100.00;100760.80;1379665;89;22203;-93
2023/08/16 10:32:40;;;;;;;9.85;6.30;;;;;;;27.66;100.00;100743.23;1532920;89;21311;-92
2023/08/16 10:35:08;;;;;;;10.90;6.40;;;;;;;27.75;100.00;100727.83;1538709;89;21192;-92
2023/08/16 10:37:35;;;;;;;11.08;6.25;;;;;;;27.82;100.00;100740.20;1537563;89;22108;-91
2023/08/16 10:40:02;;;;;;;11.57;5.42;;;;;;;27.90;100.00;100730.20;1529412;89;21443;-91
2023/08/16 10:42:28;;;;;;;16.67;5.60;;;;;;;27.97;100.00;100725.13;1367149;90;21332;-89
2023/08/16 10:44:54;;;;;;;19.62;5.15;;;;;;;27.99;100.00;100725.67;1367270;90;22144;-89
2023/08/16 10:47:29;;;;;;;13.60;5.83;;;;;;;28.02;100.00;100728.69;1372960;90;22249;-93
2023/08/16 10:49:57;;;;;;;15.30;5.10;;;;;;;28.04;100.00;100733.34;1363765;90;21458;-91
2023/08/16 10:52:30;;;;;;;9.85;4.97;;;;;;;27.99;100.00;100727.84;1535468;89;21324;-90
2023/08/16 10:55:01;;;;;;;7.92;4.97;;;;;;;28.01;100.00;100724.34;1381811;89;21236;-90
2023/08/16 10:57:27;;;;;;;16.57;4.70;;;;;;;28.05;100.00;100728.72;1538531;89;21162;-88
2023/08/16 11:00:07;;;;;;;10.30;5.17;;;;;;;28.08;100.00;100728.20;1390847;89;21236;-93
2023/08/16 11:02:36;;;;;;;12.93;4.92;;;;;;;28.07;100.00;100733.38;1453273;89;22358;-94
2023/08/16 11:05:03;;;;;;;10.78;6.05;;;;;;;28.07;100.00;100730.11;1455035;89;22408;-92
2023/08/16 11:07:30;;;;;;;13.28;4.83;;;;;;;28.06;100.00;100724.94;1455482;89;22389;-89
2023/08/16 11:10:00;;;;;;;22.48;5.50;;;;;;;28.07;100.00;100730.11;1457141;89;21412;-89
2023/08/16 11:12:31;;;;;;;10.70;4.90;;;;;;;28.07;100.00;100726.58;1455283;89;21464;-88
2023/08/16 11:14:58;;;;;;;9.20;5.15;;;;;;;28.11;100.00;100722.28;1386496;89;21286;-90
2023/08/16 11:17:28;;;;;;;18.75;5.15;;;;;;;28.17;100.00;100723.12;1366290;90;22072;-88
2023/08/16 11:19:55;;;;;;;14.60;4.97;;;;;;;28.21;100.00;100724.27;1538299;89;21221;-95
2023/08/16 11:27:01;;;;;;;6.50;4.17;;;;;;;28.28;100.00;100721.63;1538571;89;21347;-91
2023/08/16 11:29:27;;;;;;;15.05;5.47;;;;;;;28.29;100.00;100712.92;1382648;89;22218;-88
2023/08/16 11:31:57;;;;;;;14.68;4.83;;;;;;;28.33;100.00;100716.20;1352244;92;21332;-91
2023/08/16 11:34:24;;;;;;;16.62;5.50;;;;;;;28.36;100.00;100713.52;1367034;90;21220;-92
2023/08/16 11:36:50;;;;;;;11.70;4.80;;;;;;;28.39;100.00;100710.27;1432975;89;21353;-90